sensor_id;sensor_type;location;lat;lon;timestamp;temperature;humidity
10133;DHT22;5106;50.926;7.080;2023-06-10T00:01:54;20.10;71.70
10133;DHT22;5106;50.926;7.080;2023-06-10T00:04:23;20.10;71.90
10133;DHT22;5106;50.926;7.080;2023-06-10T00:06:49;20.10;72.30
10133;DHT22;5106;50.926;7.080;2023-06-10T00:09:15;20.00;72.50
10133;DHT22;5106;50.926;7.080;2023-06-10T00:11:41;20.00;72.50
10133;DHT22;5106;50.926;7.080;2023-06-10T00:14:08;19.90;72.10
10133;DHT22;5106;50.926;7.080;2023-06-10T00:16:34;19.80;71.90
10133;DHT22;5106;50.926;7.080;2023-06-10T00:19:02;19.80;71.50
10133;DHT22;5106;50.926;7.080;2023-06-10T00:21:30;19.70;71.80
10133;DHT22;5106;50.926;7.080;2023-06-10T00:23:56;19.70;72.20
10133;DHT22;5106;50.926;7.080;2023-06-10T00:26:22;19.60;72.30
10133;DHT22;5106;50.926;7.080;2023-06-10T00:28:49;19.60;73.30
10133;DHT22;5106;50.926;7.080;2023-06-10T00:31:15;19.60;74.10
10133;DHT22;5106;50.926;7.080;2023-06-10T00:33:41;19.50;74.20
10133;DHT22;5106;50.926;7.080;2023-06-10T00:36:07;19.50;73.80
10133;DHT22;5106;50.926;7.080;2023-06-10T00:38:33;19.40;74.30
10133;DHT22;5106;50.926;7.080;2023-06-10T00:40:59;19.40;74.80
10133;DHT22;5106;50.926;7.080;2023-06-10T00:43:25;19.40;75.10
10133;DHT22;5106;50.926;7.080;2023-06-10T00:45:51;19.30;75.80
10133;DHT22;5106;50.926;7.080;2023-06-10T00:48:18;19.20;75.80
10133;DHT22;5106;50.926;7.080;2023-06-10T00:50:45;19.10;75.50
10133;DHT22;5106;50.926;7.080;2023-06-10T00:53:12;19.10;74.90
10133;DHT22;5106;50.926;7.080;2023-06-10T00:55:38;19.00;74.80
10133;DHT22;5106;50.926;7.080;2023-06-10T00:58:04;19.00;75.20
10133;DHT22;5106;50.926;7.080;2023-06-10T01:00:30;18.90;75.70
10133;DHT22;5106;50.926;7.080;2023-06-10T01:02:56;18.80;75.80
10133;DHT22;5106;50.926;7.080;2023-06-10T01:05:23;18.80;76.10
10133;DHT22;5106;50.926;7.080;2023-06-10T01:08:00;18.80;76.50
10133;DHT22;5106;50.926;7.080;2023-06-10T01:13:07;18.80;76.70
10133;DHT22;5106;50.926;7.080;2023-06-10T01:15:34;18.70;76.70
10133;DHT22;5106;50.926;7.080;2023-06-10T01:18:05;18.60;76.80
10133;DHT22;5106;50.926;7.080;2023-06-10T01:20:34;18.60;76.90
10133;DHT22;5106;50.926;7.080;2023-06-10T01:23:02;18.50;77.10
10133;DHT22;5106;50.926;7.080;2023-06-10T01:25:29;18.50;77.30
10133;DHT22;5106;50.926;7.080;2023-06-10T01:30:48;18.40;77.40
10133;DHT22;5106;50.926;7.080;2023-06-10T01:33:17;18.30;77.30
10133;DHT22;5106;50.926;7.080;2023-06-10T01:35:44;18.20;77.60
10133;DHT22;5106;50.926;7.080;2023-06-10T01:38:12;18.20;77.80
10133;DHT22;5106;50.926;7.080;2023-06-10T01:40:40;18.10;78.10
10133;DHT22;5106;50.926;7.080;2023-06-10T01:43:06;18.10;78.10
10133;DHT22;5106;50.926;7.080;2023-06-10T01:45:32;18.00;78.30
10133;DHT22;5106;50.926;7.080;2023-06-10T01:47:58;18.00;78.30
10133;DHT22;5106;50.926;7.080;2023-06-10T01:50:23;17.90;78.30
10133;DHT22;5106;50.926;7.080;2023-06-10T01:52:49;17.90;78.50
10133;DHT22;5106;50.926;7.080;2023-06-10T01:58:09;17.80;78.60
10133;DHT22;5106;50.926;7.080;2023-06-10T02:03:20;17.70;78.90
10133;DHT22;5106;50.926;7.080;2023-06-10T02:05:45;17.70;78.90
10133;DHT22;5106;50.926;7.080;2023-06-10T05:47:45;17.40;82.40
10133;DHT22;5106;50.926;7.080;2023-06-10T05:50:11;17.50;82.30
10133;DHT22;5106;50.926;7.080;2023-06-10T05:52:37;17.50;82.30
10133;DHT22;5106;50.926;7.080;2023-06-10T05:55:05;17.60;82.20
10133;DHT22;5106;50.926;7.080;2023-06-10T05:57:31;17.60;82.10
10133;DHT22;5106;50.926;7.080;2023-06-10T05:59:57;17.70;81.90
10133;DHT22;5106;50.926;7.080;2023-06-10T06:02:23;17.80;81.90
10133;DHT22;5106;50.926;7.080;2023-06-10T06:04:49;17.90;81.80
10133;DHT22;5106;50.926;7.080;2023-06-10T06:07:15;18.00;81.70
10133;DHT22;5106;50.926;7.080;2023-06-10T06:09:40;18.00;81.50
10133;DHT22;5106;50.926;7.080;2023-06-10T06:12:07;18.10;81.40
10133;DHT22;5106;50.926;7.080;2023-06-10T06:14:37;18.20;81.10
10133;DHT22;5106;50.926;7.080;2023-06-10T06:17:03;18.30;80.90
10133;DHT22;5106;50.926;7.080;2023-06-10T06:19:29;18.30;80.70
10133;DHT22;5106;50.926;7.080;2023-06-10T06:21:54;18.40;80.60
10133;DHT22;5106;50.926;7.080;2023-06-10T06:24:20;18.50;80.50
10133;DHT22;5106;50.926;7.080;2023-06-10T06:26:46;18.60;80.40
10133;DHT22;5106;50.926;7.080;2023-06-10T06:29:12;18.70;80.00
10133;DHT22;5106;50.926;7.080;2023-06-10T06:31:37;18.70;79.60
10133;DHT22;5106;50.926;7.080;2023-06-10T06:34:03;18.80;79.10
10133;DHT22;5106;50.926;7.080;2023-06-10T06:36:29;18.90;78.10
10133;DHT22;5106;50.926;7.080;2023-06-10T06:38:55;18.90;77.60
10133;DHT22;5106;50.926;7.080;2023-06-10T06:41:21;19.00;77.60
10133;DHT22;5106;50.926;7.080;2023-06-10T06:43:47;19.10;77.70
10133;DHT22;5106;50.926;7.080;2023-06-10T06:46:13;19.20;77.60
10133;DHT22;5106;50.926;7.080;2023-06-10T06:48:39;19.30;77.50
10133;DHT22;5106;50.926;7.080;2023-06-10T06:51:04;19.30;77.40
10133;DHT22;5106;50.926;7.080;2023-06-10T06:53:30;19.40;77.30
10133;DHT22;5106;50.926;7.080;2023-06-10T06:55:56;19.50;77.20
10133;DHT22;5106;50.926;7.080;2023-06-10T06:58:21;19.60;76.80
10133;DHT22;5106;50.926;7.080;2023-06-10T07:00:47;19.70;76.80
10133;DHT22;5106;50.926;7.080;2023-06-10T07:03:13;19.90;76.10
10133;DHT22;5106;50.926;7.080;2023-06-10T07:05:38;20.00;75.00
10133;DHT22;5106;50.926;7.080;2023-06-10T07:08:04;20.00;74.80
10133;DHT22;5106;50.926;7.080;2023-06-10T07:10:30;20.10;74.30
10133;DHT22;5106;50.926;7.080;2023-06-10T07:12:56;20.20;74.30
10133;DHT22;5106;50.926;7.080;2023-06-10T07:15:21;20.30;74.40
10133;DHT22;5106;50.926;7.080;2023-06-10T07:17:47;20.40;74.70
10133;DHT22;5106;50.926;7.080;2023-06-10T07:20:13;20.50;75.40
10133;DHT22;5106;50.926;7.080;2023-06-10T07:22:41;20.60;76.00
10133;DHT22;5106;50.926;7.080;2023-06-10T07:25:07;20.70;75.50
10133;DHT22;5106;50.926;7.080;2023-06-10T07:27:32;20.70;75.60
10133;DHT22;5106;50.926;7.080;2023-06-10T07:29:58;20.90;76.50
10133;DHT22;5106;50.926;7.080;2023-06-10T07:32:26;20.90;75.50
10133;DHT22;5106;50.926;7.080;2023-06-10T07:34:51;21.00;74.90
10133;DHT22;5106;50.926;7.080;2023-06-10T07:37:19;21.10;75.10
10133;DHT22;5106;50.926;7.080;2023-06-10T07:39:45;21.20;71.70
10133;DHT22;5106;50.926;7.080;2023-06-10T07:42:11;21.40;72.70
10133;DHT22;5106;50.926;7.080;2023-06-10T07:44:36;21.50;70.40
10133;DHT22;5106;50.926;7.080;2023-06-10T07:47:02;21.60;70.10
10133;DHT22;5106;50.926;7.080;2023-06-10T07:49:28;21.80;71.10
10133;DHT22;5106;50.926;7.080;2023-06-10T07:51:54;22.00;70.30
10133;DHT22;5106;50.926;7.080;2023-06-10T07:54:21;22.10;69.50
10133;DHT22;5106;50.926;7.080;2023-06-10T07:56:46;22.20;68.90
10133;DHT22;5106;50.926;7.080;2023-06-10T07:59:13;22.40;67.80
10133;DHT22;5106;50.926;7.080;2023-06-10T08:01:39;22.40;67.80
10133;DHT22;5106;50.926;7.080;2023-06-10T08:04:05;22.60;68.00
10133;DHT22;5106;50.926;7.080;2023-06-10T08:06:31;22.70;68.40
10133;DHT22;5106;50.926;7.080;2023-06-10T08:08:57;22.80;67.50
10133;DHT22;5106;50.926;7.080;2023-06-10T08:11:22;22.90;67.30
10133;DHT22;5106;50.926;7.080;2023-06-10T08:13:48;23.00;67.40
10133;DHT22;5106;50.926;7.080;2023-06-10T08:16:14;23.10;66.20
10133;DHT22;5106;50.926;7.080;2023-06-10T08:18:40;23.20;65.60
10133;DHT22;5106;50.926;7.080;2023-06-10T08:21:05;23.20;66.30
10133;DHT22;5106;50.926;7.080;2023-06-10T08:23:31;23.30;65.40
10133;DHT22;5106;50.926;7.080;2023-06-10T08:25:57;23.40;65.60
10133;DHT22;5106;50.926;7.080;2023-06-10T08:28:23;23.50;64.90
10133;DHT22;5106;50.926;7.080;2023-06-10T08:30:49;23.70;65.50
10133;DHT22;5106;50.926;7.080;2023-06-10T08:33:14;23.70;66.70
10133;DHT22;5106;50.926;7.080;2023-06-10T08:35:40;23.80;66.30
10133;DHT22;5106;50.926;7.080;2023-06-10T08:38:06;23.90;66.40
10133;DHT22;5106;50.926;7.080;2023-06-10T08:40:33;24.00;65.40
10133;DHT22;5106;50.926;7.080;2023-06-10T08:45:30;24.30;64.40
10133;DHT22;5106;50.926;7.080;2023-06-10T08:48:05;24.40;64.80
10133;DHT22;5106;50.926;7.080;2023-06-10T08:50:35;24.40;64.90
10133;DHT22;5106;50.926;7.080;2023-06-10T08:53:06;24.50;65.90
10133;DHT22;5106;50.926;7.080;2023-06-10T08:55:35;24.70;65.10
10133;DHT22;5106;50.926;7.080;2023-06-10T08:58:02;24.70;64.50
10133;DHT22;5106;50.926;7.080;2023-06-10T09:00:29;24.70;64.00
10133;DHT22;5106;50.926;7.080;2023-06-10T09:02:57;24.80;65.40
10133;DHT22;5106;50.926;7.080;2023-06-10T09:05:23;24.90;64.90
10133;DHT22;5106;50.926;7.080;2023-06-10T09:07:51;25.10;64.10
10133;DHT22;5106;50.926;7.080;2023-06-10T09:10:17;25.20;64.80
10133;DHT22;5106;50.926;7.080;2023-06-10T09:12:43;25.40;63.80
10133;DHT22;5106;50.926;7.080;2023-06-10T09:15:09;25.50;64.20
10133;DHT22;5106;50.926;7.080;2023-06-10T09:17:37;25.70;63.80
10133;DHT22;5106;50.926;7.080;2023-06-10T09:20:06;25.70;62.40
10133;DHT22;5106;50.926;7.080;2023-06-10T09:22:33;25.90;62.60
10133;DHT22;5106;50.926;7.080;2023-06-10T09:25:10;26.00;64.80
10133;DHT22;5106;50.926;7.080;2023-06-10T09:27:46;26.10;63.70
10133;DHT22;5106;50.926;7.080;2023-06-10T09:30:32;26.20;60.50
10133;DHT22;5106;50.926;7.080;2023-06-10T09:33:00;26.30;61.60
10133;DHT22;5106;50.926;7.080;2023-06-10T09:35:29;26.40;62.50
10133;DHT22;5106;50.926;7.080;2023-06-10T09:37:56;26.50;63.40
10133;DHT22;5106;50.926;7.080;2023-06-10T09:40:23;26.60;62.00
10133;DHT22;5106;50.926;7.080;2023-06-10T09:43:06;26.70;62.30
10133;DHT22;5106;50.926;7.080;2023-06-10T09:45:32;26.80;62.90
10133;DHT22;5106;50.926;7.080;2023-06-10T09:47:58;26.90;61.00
10133;DHT22;5106;50.926;7.080;2023-06-10T09:50:23;26.90;60.80
10133;DHT22;5106;50.926;7.080;2023-06-10T09:52:50;27.00;61.80
10133;DHT22;5106;50.926;7.080;2023-06-10T09:55:17;27.10;59.60
10133;DHT22;5106;50.926;7.080;2023-06-10T09:57:43;27.20;59.70
10133;DHT22;5106;50.926;7.080;2023-06-10T10:00:15;27.30;58.80
10133;DHT22;5106;50.926;7.080;2023-06-10T10:02:51;27.50;59.20
10133;DHT22;5106;50.926;7.080;2023-06-10T10:05:19;27.60;56.40
10133;DHT22;5106;50.926;7.080;2023-06-10T10:07:45;27.80;57.90
10133;DHT22;5106;50.926;7.080;2023-06-10T10:10:13;27.90;56.20
10133;DHT22;5106;50.926;7.080;2023-06-10T10:12:40;27.90;57.90
10133;DHT22;5106;50.926;7.080;2023-06-10T10:15:10;28.10;56.10
10133;DHT22;5106;50.926;7.080;2023-06-10T10:18:11;28.20;57.20
10133;DHT22;5106;50.926;7.080;2023-06-10T10:20:47;28.30;56.70
10133;DHT22;5106;50.926;7.080;2023-06-10T10:23:18;28.40;52.90
10133;DHT22;5106;50.926;7.080;2023-06-10T10:25:51;28.50;54.60
10133;DHT22;5106;50.926;7.080;2023-06-10T10:28:20;28.60;51.30
10133;DHT22;5106;50.926;7.080;2023-06-10T10:30:49;28.70;51.30
10133;DHT22;5106;50.926;7.080;2023-06-10T10:33:19;28.80;53.20
10133;DHT22;5106;50.926;7.080;2023-06-10T10:35:50;28.90;53.50
10133;DHT22;5106;50.926;7.080;2023-06-10T10:38:16;29.00;52.20
10133;DHT22;5106;50.926;7.080;2023-06-10T10:40:43;29.10;51.60
10133;DHT22;5106;50.926;7.080;2023-06-10T10:43:10;29.20;49.80
10133;DHT22;5106;50.926;7.080;2023-06-10T10:45:59;29.30;50.90
10133;DHT22;5106;50.926;7.080;2023-06-10T10:48:35;29.40;49.20
10133;DHT22;5106;50.926;7.080;2023-06-10T10:51:02;29.50;48.30
10133;DHT22;5106;50.926;7.080;2023-06-10T10:53:28;29.60;49.40
10133;DHT22;5106;50.926;7.080;2023-06-10T10:56:06;29.60;47.70
10133;DHT22;5106;50.926;7.080;2023-06-10T10:58:33;29.70;48.60
10133;DHT22;5106;50.926;7.080;2023-06-10T11:00:58;29.70;47.60
10133;DHT22;5106;50.926;7.080;2023-06-10T11:03:31;29.80;49.30
10133;DHT22;5106;50.926;7.080;2023-06-10T11:05:59;29.90;50.70
10133;DHT22;5106;50.926;7.080;2023-06-10T11:10:54;30.00;47.70
10133;DHT22;5106;50.926;7.080;2023-06-10T11:13:23;29.90;47.60
10133;DHT22;5106;50.926;7.080;2023-06-10T11:15:51;30.00;46.40
10133;DHT22;5106;50.926;7.080;2023-06-10T11:18:27;30.00;47.60
10133;DHT22;5106;50.926;7.080;2023-06-10T11:21:04;30.10;47.40
10133;DHT22;5106;50.926;7.080;2023-06-10T11:23:32;29.90;46.80
10133;DHT22;5106;50.926;7.080;2023-06-10T11:29:05;30.00;48.40
10133;DHT22;5106;50.926;7.080;2023-06-10T11:34:04;30.20;44.10
10133;DHT22;5106;50.926;7.080;2023-06-10T11:36:31;30.20;43.70
10133;DHT22;5106;50.926;7.080;2023-06-10T11:38:59;30.20;43.60
10133;DHT22;5106;50.926;7.080;2023-06-10T11:41:26;30.20;45.70
10133;DHT22;5106;50.926;7.080;2023-06-10T11:43:53;30.30;46.20
10133;DHT22;5106;50.926;7.080;2023-06-10T11:46:21;30.40;45.10
10133;DHT22;5106;50.926;7.080;2023-06-10T11:48:54;30.40;43.00
10133;DHT22;5106;50.926;7.080;2023-06-10T11:51:20;30.40;45.10
10133;DHT22;5106;50.926;7.080;2023-06-10T11:53:48;30.40;44.30
10133;DHT22;5106;50.926;7.080;2023-06-10T11:56:22;30.40;45.30
10133;DHT22;5106;50.926;7.080;2023-06-10T12:01:30;30.50;44.40
10133;DHT22;5106;50.926;7.080;2023-06-10T12:04:17;30.60;44.50
10133;DHT22;5106;50.926;7.080;2023-06-10T12:06:51;30.40;43.10
10133;DHT22;5106;50.926;7.080;2023-06-10T12:09:18;30.30;44.30
10133;DHT22;5106;50.926;7.080;2023-06-10T12:11:44;30.30;44.20
10133;DHT22;5106;50.926;7.080;2023-06-10T12:14:11;30.20;44.00
10133;DHT22;5106;50.926;7.080;2023-06-10T12:16:37;30.10;44.60
10133;DHT22;5106;50.926;7.080;2023-06-10T12:19:04;30.00;44.40
10133;DHT22;5106;50.926;7.080;2023-06-10T12:21:32;29.90;46.00
10133;DHT22;5106;50.926;7.080;2023-06-10T12:24:03;29.80;45.40
10133;DHT22;5106;50.926;7.080;2023-06-10T12:29:12;29.70;45.30
10133;DHT22;5106;50.926;7.080;2023-06-10T12:31:59;29.70;44.20
10133;DHT22;5106;50.926;7.080;2023-06-10T12:34:43;29.70;45.40
10133;DHT22;5106;50.926;7.080;2023-06-10T12:37:12;29.60;45.10
10133;DHT22;5106;50.926;7.080;2023-06-10T12:39:42;29.60;44.60
10133;DHT22;5106;50.926;7.080;2023-06-10T12:42:12;29.70;44.70
10133;DHT22;5106;50.926;7.080;2023-06-10T12:44:41;29.80;45.60
10133;DHT22;5106;50.926;7.080;2023-06-10T12:47:08;29.80;43.50
10133;DHT22;5106;50.926;7.080;2023-06-10T12:49:36;29.80;45.80
10133;DHT22;5106;50.926;7.080;2023-06-10T12:52:02;29.90;44.20
10133;DHT22;5106;50.926;7.080;2023-06-10T12:54:28;30.00;45.20
10133;DHT22;5106;50.926;7.080;2023-06-10T12:56:57;30.00;42.40
10133;DHT22;5106;50.926;7.080;2023-06-10T12:59:23;29.90;43.30
10133;DHT22;5106;50.926;7.080;2023-06-10T13:01:53;30.00;42.70
10133;DHT22;5106;50.926;7.080;2023-06-10T13:04:19;30.00;44.00
10133;DHT22;5106;50.926;7.080;2023-06-10T13:06:45;30.00;42.10
10133;DHT22;5106;50.926;7.080;2023-06-10T13:09:12;30.10;41.40
10133;DHT22;5106;50.926;7.080;2023-06-10T13:11:38;30.20;44.10
10133;DHT22;5106;50.926;7.080;2023-06-10T13:14:04;30.30;43.10
10133;DHT22;5106;50.926;7.080;2023-06-10T13:16:32;30.30;43.70
10133;DHT22;5106;50.926;7.080;2023-06-10T13:19:01;30.30;43.60
10133;DHT22;5106;50.926;7.080;2023-06-10T13:21:28;30.30;46.20
10133;DHT22;5106;50.926;7.080;2023-06-10T13:23:53;30.20;44.00
10133;DHT22;5106;50.926;7.080;2023-06-10T13:26:19;30.20;43.90
10133;DHT22;5106;50.926;7.080;2023-06-10T13:28:45;30.10;43.10
10133;DHT22;5106;50.926;7.080;2023-06-10T13:31:11;30.00;44.10
10133;DHT22;5106;50.926;7.080;2023-06-10T13:33:37;29.80;45.60
10133;DHT22;5106;50.926;7.080;2023-06-10T13:36:03;29.60;44.30
10133;DHT22;5106;50.926;7.080;2023-06-10T13:38:28;29.40;45.10
10133;DHT22;5106;50.926;7.080;2023-06-10T13:40:54;29.30;46.10
10133;DHT22;5106;50.926;7.080;2023-06-10T13:43:20;29.20;46.20
10133;DHT22;5106;50.926;7.080;2023-06-10T13:45:45;29.20;45.30
10133;DHT22;5106;50.926;7.080;2023-06-10T13:48:11;29.30;45.10
10133;DHT22;5106;50.926;7.080;2023-06-10T13:50:38;29.40;44.40
10133;DHT22;5106;50.926;7.080;2023-06-10T13:53:03;29.50;44.40
10133;DHT22;5106;50.926;7.080;2023-06-10T13:55:29;29.60;44.00
10133;DHT22;5106;50.926;7.080;2023-06-10T13:57:55;29.70;45.40
10133;DHT22;5106;50.926;7.080;2023-06-10T14:00:20;29.90;44.40
10133;DHT22;5106;50.926;7.080;2023-06-10T14:02:46;30.00;44.60
10133;DHT22;5106;50.926;7.080;2023-06-10T14:05:12;30.20;43.40
10133;DHT22;5106;50.926;7.080;2023-06-10T14:07:38;30.40;43.80
10133;DHT22;5106;50.926;7.080;2023-06-10T14:10:05;30.40;42.10
10133;DHT22;5106;50.926;7.080;2023-06-10T14:12:31;30.40;43.00
10133;DHT22;5106;50.926;7.080;2023-06-10T14:14:56;30.40;43.00
10133;DHT22;5106;50.926;7.080;2023-06-10T14:17:22;30.40;43.50
10133;DHT22;5106;50.926;7.080;2023-06-10T14:19:48;30.40;43.30
10133;DHT22;5106;50.926;7.080;2023-06-10T14:22:14;30.40;43.50
10133;DHT22;5106;50.926;7.080;2023-06-10T14:24:40;30.30;42.40
10133;DHT22;5106;50.926;7.080;2023-06-10T14:27:05;30.40;42.60
10133;DHT22;5106;50.926;7.080;2023-06-10T14:29:31;30.40;44.30
10133;DHT22;5106;50.926;7.080;2023-06-10T14:31:59;30.40;44.50
10133;DHT22;5106;50.926;7.080;2023-06-10T14:34:25;30.40;44.30
10133;DHT22;5106;50.926;7.080;2023-06-10T14:36:54;30.50;44.90
10133;DHT22;5106;50.926;7.080;2023-06-10T14:39:20;30.50;43.80
10133;DHT22;5106;50.926;7.080;2023-06-10T14:41:46;30.40;43.10
10133;DHT22;5106;50.926;7.080;2023-06-10T14:44:11;30.40;43.00
10133;DHT22;5106;50.926;7.080;2023-06-10T14:46:37;30.30;42.30
10133;DHT22;5106;50.926;7.080;2023-06-10T14:49:03;30.30;41.80
10133;DHT22;5106;50.926;7.080;2023-06-10T14:51:28;30.40;43.60
10133;DHT22;5106;50.926;7.080;2023-06-10T14:53:54;30.40;44.10
10133;DHT22;5106;50.926;7.080;2023-06-10T14:56:20;30.40;43.40
10133;DHT22;5106;50.926;7.080;2023-06-10T14:58:45;30.40;43.00
10133;DHT22;5106;50.926;7.080;2023-06-10T15:01:11;30.50;42.20
10133;DHT22;5106;50.926;7.080;2023-06-10T15:03:37;30.50;41.70
10133;DHT22;5106;50.926;7.080;2023-06-10T15:06:02;30.60;39.70
10133;DHT22;5106;50.926;7.080;2023-06-10T15:08:28;30.70;42.00
10133;DHT22;5106;50.926;7.080;2023-06-10T15:10:54;30.80;41.20
10133;DHT22;5106;50.926;7.080;2023-06-10T15:13:20;30.80;42.10
10133;DHT22;5106;50.926;7.080;2023-06-10T15:15:45;30.80;41.70
10133;DHT22;5106;50.926;7.080;2023-06-10T15:18:20;30.80;42.30
10133;DHT22;5106;50.926;7.080;2023-06-10T15:20:46;30.80;41.00
10133;DHT22;5106;50.926;7.080;2023-06-10T15:23:12;30.70;42.60
10133;DHT22;5106;50.926;7.080;2023-06-10T15:25:37;30.60;42.40
10133;DHT22;5106;50.926;7.080;2023-06-10T15:28:06;30.40;41.70
10133;DHT22;5106;50.926;7.080;2023-06-10T15:30:31;30.30;42.30
10133;DHT22;5106;50.926;7.080;2023-06-10T15:32:57;30.30;43.40
10133;DHT22;5106;50.926;7.080;2023-06-10T15:35:23;30.30;44.10
10133;DHT22;5106;50.926;7.080;2023-06-10T15:37:48;30.20;41.90
10133;DHT22;5106;50.926;7.080;2023-06-10T15:40:14;30.20;42.70
10133;DHT22;5106;50.926;7.080;2023-06-10T15:42:40;30.10;41.10
10133;DHT22;5106;50.926;7.080;2023-06-10T15:45:06;30.00;40.80
10133;DHT22;5106;50.926;7.080;2023-06-10T15:47:32;29.90;40.80
10133;DHT22;5106;50.926;7.080;2023-06-10T15:49:57;29.80;41.80
10133;DHT22;5106;50.926;7.080;2023-06-10T15:52:23;29.80;41.40
10133;DHT22;5106;50.926;7.080;2023-06-10T15:54:48;29.90;43.20
10133;DHT22;5106;50.926;7.080;2023-06-10T15:57:14;30.00;43.00
10133;DHT22;5106;50.926;7.080;2023-06-10T15:59:40;30.10;42.60
10133;DHT22;5106;50.926;7.080;2023-06-10T16:02:05;30.30;41.40
10133;DHT22;5106;50.926;7.080;2023-06-10T16:04:31;30.50;40.70
10133;DHT22;5106;50.926;7.080;2023-06-10T16:06:57;30.80;42.60
10133;DHT22;5106;50.926;7.080;2023-06-10T16:09:23;30.90;41.30
10133;DHT22;5106;50.926;7.080;2023-06-10T16:11:48;31.00;42.60
10133;DHT22;5106;50.926;7.080;2023-06-10T16:14:14;31.10;41.10
10133;DHT22;5106;50.926;7.080;2023-06-10T16:16:40;31.00;39.60
10133;DHT22;5106;50.926;7.080;2023-06-10T16:19:05;30.90;41.20
10133;DHT22;5106;50.926;7.080;2023-06-10T16:21:31;30.80;40.80
10133;DHT22;5106;50.926;7.080;2023-06-10T16:23:56;30.70;40.80
10133;DHT22;5106;50.926;7.080;2023-06-10T16:26:22;30.70;40.30
10133;DHT22;5106;50.926;7.080;2023-06-10T16:28:48;30.70;40.60
10133;DHT22;5106;50.926;7.080;2023-06-10T16:31:14;30.70;40.90
10133;DHT22;5106;50.926;7.080;2023-06-10T16:33:39;30.70;41.50
10133;DHT22;5106;50.926;7.080;2023-06-10T16:36:05;30.60;40.60
10133;DHT22;5106;50.926;7.080;2023-06-10T16:38:31;30.60;42.00
10133;DHT22;5106;50.926;7.080;2023-06-10T16:40:57;30.50;41.70
10133;DHT22;5106;50.926;7.080;2023-06-10T16:43:23;30.50;41.30
10133;DHT22;5106;50.926;7.080;2023-06-10T16:45:51;30.50;42.10
10133;DHT22;5106;50.926;7.080;2023-06-10T16:48:18;30.40;42.40
10133;DHT22;5106;50.926;7.080;2023-06-10T16:50:44;30.40;44.60
10133;DHT22;5106;50.926;7.080;2023-06-10T16:53:10;30.30;43.30
10133;DHT22;5106;50.926;7.080;2023-06-10T16:55:35;30.30;43.20
10133;DHT22;5106;50.926;7.080;2023-06-10T16:58:04;30.20;42.90
10133;DHT22;5106;50.926;7.080;2023-06-10T17:00:30;30.10;41.60
10133;DHT22;5106;50.926;7.080;2023-06-10T17:02:55;30.10;41.30
10133;DHT22;5106;50.926;7.080;2023-06-10T17:05:21;30.00;41.60
10133;DHT22;5106;50.926;7.080;2023-06-10T17:07:46;29.90;41.50
10133;DHT22;5106;50.926;7.080;2023-06-10T17:10:12;29.90;41.10
10133;DHT22;5106;50.926;7.080;2023-06-10T17:12:38;29.80;42.90
10133;DHT22;5106;50.926;7.080;2023-06-10T17:15:05;29.70;41.60
10133;DHT22;5106;50.926;7.080;2023-06-10T17:17:30;29.70;42.10
10133;DHT22;5106;50.926;7.080;2023-06-10T17:19:56;29.60;44.70
10133;DHT22;5106;50.926;7.080;2023-06-10T17:22:22;29.60;43.30
10133;DHT22;5106;50.926;7.080;2023-06-10T17:24:47;29.70;43.30
10133;DHT22;5106;50.926;7.080;2023-06-10T17:27:13;29.70;43.80
10133;DHT22;5106;50.926;7.080;2023-06-10T17:29:39;29.70;44.40
10133;DHT22;5106;50.926;7.080;2023-06-10T17:32:05;29.70;43.30
10133;DHT22;5106;50.926;7.080;2023-06-10T17:34:30;29.70;42.60
10133;DHT22;5106;50.926;7.080;2023-06-10T17:36:57;29.70;43.70
10133;DHT22;5106;50.926;7.080;2023-06-10T17:39:23;29.60;43.90
10133;DHT22;5106;50.926;7.080;2023-06-10T17:41:49;29.50;44.10
10133;DHT22;5106;50.926;7.080;2023-06-10T17:44:15;29.40;43.70
10133;DHT22;5106;50.926;7.080;2023-06-10T17:46:46;29.20;43.90
10133;DHT22;5106;50.926;7.080;2023-06-10T17:49:12;29.10;46.00
10133;DHT22;5106;50.926;7.080;2023-06-10T17:51:38;29.00;45.30
10133;DHT22;5106;50.926;7.080;2023-06-10T17:54:03;28.80;45.20
10133;DHT22;5106;50.926;7.080;2023-06-10T17:56:32;28.70;45.30
10133;DHT22;5106;50.926;7.080;2023-06-10T17:58:58;28.60;45.70
10133;DHT22;5106;50.926;7.080;2023-06-10T18:01:23;28.50;46.20
10133;DHT22;5106;50.926;7.080;2023-06-10T18:03:49;28.40;46.40
10133;DHT22;5106;50.926;7.080;2023-06-10T18:06:14;28.30;47.60
10133;DHT22;5106;50.926;7.080;2023-06-10T18:08:40;28.20;47.90
10133;DHT22;5106;50.926;7.080;2023-06-10T18:11:06;28.10;48.40
10133;DHT22;5106;50.926;7.080;2023-06-10T18:13:32;28.00;48.50
10133;DHT22;5106;50.926;7.080;2023-06-10T18:15:58;27.90;48.70
10133;DHT22;5106;50.926;7.080;2023-06-10T18:18:25;27.80;48.70
10133;DHT22;5106;50.926;7.080;2023-06-10T18:20:51;27.80;49.20
10133;DHT22;5106;50.926;7.080;2023-06-10T18:23:17;27.70;49.60
10133;DHT22;5106;50.926;7.080;2023-06-10T18:25:42;27.60;50.20
10133;DHT22;5106;50.926;7.080;2023-06-10T18:28:08;27.50;50.50
10133;DHT22;5106;50.926;7.080;2023-06-10T18:30:34;27.40;50.60
10133;DHT22;5106;50.926;7.080;2023-06-10T18:33:00;27.40;51.50
10133;DHT22;5106;50.926;7.080;2023-06-10T18:35:25;27.30;51.90
10133;DHT22;5106;50.926;7.080;2023-06-10T18:37:51;27.20;52.10
10133;DHT22;5106;50.926;7.080;2023-06-10T18:40:17;27.10;54.00
10133;DHT22;5106;50.926;7.080;2023-06-10T18:42:43;27.00;53.70
10133;DHT22;5106;50.926;7.080;2023-06-10T18:45:09;26.90;55.60
10133;DHT22;5106;50.926;7.080;2023-06-10T18:47:35;26.80;56.50
10133;DHT22;5106;50.926;7.080;2023-06-10T18:50:01;26.70;58.70
10133;DHT22;5106;50.926;7.080;2023-06-10T18:52:26;26.60;60.30
10133;DHT22;5106;50.926;7.080;2023-06-10T18:54:52;26.50;59.50
10133;DHT22;5106;50.926;7.080;2023-06-10T18:57:18;26.40;60.90
10133;DHT22;5106;50.926;7.080;2023-06-10T18:59:43;26.20;61.60
10133;DHT22;5106;50.926;7.080;2023-06-10T19:02:09;26.10;62.70
10133;DHT22;5106;50.926;7.080;2023-06-10T19:04:35;26.00;63.50
10133;DHT22;5106;50.926;7.080;2023-06-10T19:07:02;25.90;63.40
10133;DHT22;5106;50.926;7.080;2023-06-10T19:09:27;25.80;63.10
10133;DHT22;5106;50.926;7.080;2023-06-10T19:11:53;25.70;64.10
10133;DHT22;5106;50.926;7.080;2023-06-10T19:14:19;25.60;65.50
10133;DHT22;5106;50.926;7.080;2023-06-10T19:16:45;25.50;66.20
10133;DHT22;5106;50.926;7.080;2023-06-10T19:19:10;25.40;66.20
10133;DHT22;5106;50.926;7.080;2023-06-10T19:21:36;25.30;65.80
10133;DHT22;5106;50.926;7.080;2023-06-10T19:24:02;25.20;66.10
10133;DHT22;5106;50.926;7.080;2023-06-10T19:26:28;25.10;66.50
10133;DHT22;5106;50.926;7.080;2023-06-10T19:28:54;25.00;66.60
10133;DHT22;5106;50.926;7.080;2023-06-10T19:31:20;24.90;65.80
10133;DHT22;5106;50.926;7.080;2023-06-10T19:33:45;24.80;66.20
10133;DHT22;5106;50.926;7.080;2023-06-10T19:36:11;24.70;65.90
10133;DHT22;5106;50.926;7.080;2023-06-10T19:38:37;24.60;67.40
10133;DHT22;5106;50.926;7.080;2023-06-10T19:41:02;24.40;66.90
10133;DHT22;5106;50.926;7.080;2023-06-10T19:43:30;24.40;67.50
10133;DHT22;5106;50.926;7.080;2023-06-10T19:45:55;24.30;68.00
10133;DHT22;5106;50.926;7.080;2023-06-10T19:48:21;24.20;68.30
10133;DHT22;5106;50.926;7.080;2023-06-10T19:50:47;24.10;68.60